createdAt,value
2023-03-17T00:00:03.154Z,2.29
2023-03-17T00:05:02.951Z,2.24
2023-03-17T00:10:03.014Z,2.32
2023-03-17T00:15:03.154Z,2.24
2023-03-17T00:20:03.045Z,2.36
2023-03-17T00:25:02.915Z,2.56
2023-03-17T00:30:02.473Z,2.57
2023-03-17T00:35:02.301Z,2.59
2023-03-17T00:40:03.042Z,2.56
2023-03-17T00:45:02.791Z,2.41
2023-03-17T00:50:02.704Z,2.37
2023-03-17T00:55:03.163Z,2.31
2023-03-17T01:00:02.307Z,2.21
2023-03-17T01:05:06.504Z,2.15
2023-03-17T01:10:02.783Z,2.26
2023-03-17T01:15:02.656Z,2.11
2023-03-17T01:20:02.838Z,1.98
2023-03-17T01:25:02.513Z,1.93
2023-03-17T01:30:03.237Z,1.92
2023-03-17T01:35:02.984Z,2.01
2023-03-17T01:40:02.767Z,1.91
2023-03-17T01:45:02.997Z,1.87
2023-03-17T01:50:03.167Z,1.81
2023-03-17T01:55:03.700Z,1.86
2023-03-17T02:00:02.965Z,2.04
2023-03-17T02:05:02.677Z,2.08
2023-03-17T02:10:02.469Z,2.14
2023-03-17T02:15:02.715Z,2.14
2023-03-17T02:20:02.395Z,2.22
2023-03-17T02:25:02.207Z,2.26
2023-03-17T02:30:03.088Z,2.24
2023-03-17T02:35:02.660Z,2.25
2023-03-17T02:40:02.356Z,2.33
2023-03-17T02:45:03.171Z,2.18
2023-03-17T02:50:03.037Z,2.2
2023-03-17T02:55:03.661Z,2.2
2023-03-17T03:00:02.633Z,2.13
2023-03-17T03:05:02.338Z,2.19
2023-03-17T03:10:02.369Z,2.16
2023-03-17T03:15:02.320Z,2.12
2023-03-17T03:20:02.406Z,2.07
2023-03-17T03:25:03.193Z,2.08
2023-03-17T03:30:02.987Z,2.1
2023-03-17T03:35:03.055Z,2.07
2023-03-17T03:40:02.925Z,2.03
2023-03-17T03:45:02.923Z,1.97
2023-03-17T03:50:02.420Z,2
2023-03-17T03:55:03.324Z,1.87
2023-03-17T04:00:02.669Z,1.76
2023-03-17T04:05:02.533Z,1.79
2023-03-17T04:10:02.487Z,1.79
2023-03-17T04:15:03.240Z,1.75
2023-03-17T04:20:03.063Z,1.88
2023-03-17T04:25:02.947Z,1.92
2023-03-17T04:30:02.784Z,2
2023-03-17T04:35:02.659Z,2
2023-03-17T04:40:02.356Z,2.09
2023-03-17T04:45:02.374Z,2.15
2023-03-17T04:50:03.435Z,2.27
2023-03-17T04:55:03.581Z,2.23
2023-03-17T05:00:02.752Z,2.25
2023-03-17T05:05:02.565Z,2.24
2023-03-17T05:10:02.304Z,2.29
2023-03-17T05:15:02.551Z,2.32
2023-03-17T05:20:03.151Z,2.23
2023-03-17T05:25:02.867Z,2.25
2023-03-17T05:30:02.535Z,2.15
2023-03-17T05:35:02.256Z,2.29
2023-03-17T05:40:02.974Z,2.2
2023-03-17T05:45:02.788Z,2.45
2023-03-17T05:50:02.534Z,2.54
2023-03-17T05:55:02.746Z,2.69
2023-03-17T06:00:03.073Z,2.74
2023-03-17T06:05:02.736Z,2.93
2023-03-17T06:10:02.461Z,2.97
2023-03-17T06:15:03.213Z,3.01
2023-03-17T06:20:02.952Z,3.15
2023-03-17T06:25:02.656Z,3.34
2023-03-17T06:30:02.736Z,3.36
2023-03-17T06:35:02.649Z,3.47
2023-03-17T06:40:02.543Z,3.75
2023-03-17T06:45:02.324Z,3.83
2023-03-17T06:50:03.077Z,3.8
2023-03-17T06:55:03.550Z,3.87
2023-03-17T07:00:03.233Z,3.89
2023-03-17T07:05:03.159Z,3.95
2023-03-17T07:10:02.982Z,4.43
2023-03-17T07:15:02.835Z,4.73
2023-03-17T07:20:02.461Z,4.77
2023-03-17T07:25:02.462Z,5.07
2023-03-17T07:30:03.243Z,5.1
2023-03-17T07:35:02.866Z,5.49
2023-03-17T07:40:02.708Z,6.36
2023-03-17T07:45:02.790Z,6.72
2023-03-17T07:50:02.899Z,6.91
2023-03-17T07:55:03.211Z,6.86
2023-03-17T08:00:02.407Z,7.18
2023-03-17T08:05:03.325Z,6.97
2023-03-17T08:10:03.067Z,7.38
2023-03-17T08:15:02.782Z,7.11
2023-03-17T08:20:03.105Z,7.35
2023-03-17T08:25:02.769Z,7.83
2023-03-17T08:30:02.759Z,7.91
2023-03-17T08:35:02.502Z,8.27
2023-03-17T08:40:02.443Z,8.41
2023-03-17T08:45:03.219Z,8.05
2023-03-17T08:50:03.045Z,8.47
2023-03-17T08:55:03.655Z,8.96
2023-03-17T09:00:02.790Z,8.66
2023-03-17T09:05:02.652Z,8.81
2023-03-17T09:10:02.488Z,9.23
2023-03-17T09:15:02.329Z,9.51
2023-03-17T09:20:03.089Z,9.42
2023-03-17T09:25:02.741Z,9.24
2023-03-17T09:30:02.764Z,9.61
2023-03-17T09:35:02.447Z,9.74
2023-03-17T09:40:02.275Z,9.87
2023-03-17T09:45:03.068Z,10.09
2023-03-17T09:50:02.820Z,10.41
2023-03-17T09:55:03.789Z,10.21
2023-03-17T10:00:02.810Z,10.63
2023-03-17T10:05:02.642Z,10.52
2023-03-17T10:10:02.883Z,10.34
2023-03-17T10:15:02.751Z,10.29
2023-03-17T10:20:02.892Z,10.26
2023-03-17T10:25:03.788Z,10.49
2023-03-17T10:30:02.470Z,10.58
2023-03-17T10:35:02.413Z,11.01
2023-03-17T10:40:03.130Z,10.86
2023-03-17T10:45:02.867Z,11.22
2023-03-17T10:50:02.527Z,11.66
2023-03-17T10:55:03.294Z,12.23
2023-03-17T11:00:03.002Z,11.89
2023-03-17T11:05:02.719Z,11.84
2023-03-17T11:10:02.863Z,11.83
2023-03-17T11:15:02.806Z,11.82
2023-03-17T11:20:02.753Z,12.16
2023-03-17T11:25:02.472Z,12.09
2023-03-17T11:30:02.329Z,12.18
2023-03-17T11:35:02.939Z,12.12
2023-03-17T11:40:02.944Z,12.27
2023-03-17T11:45:02.749Z,12.43
2023-03-17T11:50:02.425Z,12.25
2023-03-17T11:55:03.133Z,12.82
2023-03-17T12:00:03.162Z,13.13
2023-03-17T12:05:03.063Z,12.98
2023-03-17T12:10:02.766Z,13.3
2023-03-17T12:15:02.692Z,13.66
2023-03-17T12:20:02.491Z,13.15
2023-03-17T12:25:03.170Z,13.43
2023-03-17T12:30:02.860Z,13.5
2023-03-17T12:35:02.924Z,13.53
2023-03-17T12:40:02.871Z,13.69
2023-03-17T12:45:02.603Z,13.85
2023-03-17T12:50:02.352Z,13.7
2023-03-17T12:55:03.392Z,13.92
2023-03-17T13:00:03.128Z,13.82
2023-03-17T13:05:02.814Z,13.96
2023-03-17T13:10:02.684Z,14.15
2023-03-17T13:15:02.306Z,14
2023-03-17T13:20:03.157Z,14.2
2023-03-17T13:25:02.893Z,14.43
2023-03-17T13:30:02.709Z,14.71
2023-03-17T13:35:02.498Z,14.58
2023-03-17T13:40:02.324Z,14.42
2023-03-17T13:45:03.251Z,14.26
2023-03-17T13:50:02.911Z,14.1
2023-03-17T13:55:03.430Z,13.93
2023-03-17T14:00:02.346Z,13.85
2023-03-17T14:05:03.107Z,13.88
2023-03-17T14:10:02.796Z,13.78
2023-03-17T14:15:02.759Z,13.67
2023-03-17T14:20:02.698Z,13.65
2023-03-17T14:25:02.492Z,13.64
2023-03-17T14:30:02.890Z,13.61
2023-03-17T14:35:03.106Z,13.57
2023-03-17T14:40:02.875Z,13.49
2023-03-17T14:45:02.943Z,13.47
2023-03-17T14:50:02.605Z,13.47
2023-03-17T14:55:03.444Z,13.44
2023-03-17T15:00:02.332Z,13.38
2023-03-17T15:05:03.025Z,13.38
2023-03-17T15:10:02.831Z,13.33
2023-03-17T15:15:02.534Z,13.34
2023-03-17T15:20:02.322Z,13.26
2023-03-17T15:25:02.352Z,13.18
2023-03-17T15:30:02.463Z,13.04
2023-03-17T15:35:02.263Z,12.92
2023-03-17T15:40:02.963Z,12.8
2023-03-17T15:45:03.178Z,12.71
2023-03-17T15:50:02.888Z,12.57
2023-03-17T15:55:06.655Z,12.44
2023-03-17T16:00:02.916Z,12.28
2023-03-17T16:05:02.881Z,12.2
2023-03-17T16:10:02.500Z,12.12
2023-03-17T16:15:07.736Z,11.97
2023-03-17T16:20:02.473Z,11.81
2023-03-17T16:25:03.180Z,11.75
2023-03-17T16:30:02.994Z,11.65
2023-03-17T16:35:02.621Z,11.54
2023-03-17T16:40:02.453Z,11.44
2023-03-17T16:45:03.348Z,11.23
2023-03-17T16:50:03.073Z,11.16
2023-03-17T16:55:03.752Z,11.15
2023-03-17T17:00:02.556Z,11.04
2023-03-17T17:05:02.338Z,10.92
2023-03-17T17:10:03.143Z,10.88
2023-03-17T17:15:02.946Z,10.69
2023-03-17T17:20:02.654Z,10.69
2023-03-17T17:25:02.341Z,10.65
2023-03-17T17:30:02.247Z,10.6
2023-03-17T17:35:02.939Z,10.49
2023-03-17T17:40:03.168Z,10.31
2023-03-17T17:45:02.990Z,10.28
2023-03-17T17:50:02.787Z,10.31
2023-03-17T17:55:02.976Z,10.26
2023-03-17T18:00:02.359Z,10.28
2023-03-17T18:05:03.108Z,10.32
2023-03-17T18:10:02.891Z,10.25
2023-03-17T18:15:02.733Z,10.27
2023-03-17T18:20:02.887Z,10.26
2023-03-17T18:25:02.663Z,10.15
2023-03-17T18:30:02.397Z,10.06
2023-03-17T18:35:03.018Z,10
2023-03-17T18:40:14.547Z,9.89
2023-03-17T18:45:03.001Z,9.87
2023-03-17T18:50:02.680Z,9.91
2023-03-17T18:55:03.506Z,9.96
2023-03-17T19:00:02.326Z,9.96
2023-03-17T19:05:02.362Z,9.83
2023-03-17T19:10:02.360Z,9.57
2023-03-17T19:15:02.465Z,9.44
2023-03-17T19:20:03.185Z,9.19
2023-03-17T19:25:02.916Z,9.12
2023-03-17T19:30:03.053Z,9.21
2023-03-17T19:35:02.812Z,9.34
2023-03-17T19:40:02.648Z,9.23
2023-03-17T19:45:02.359Z,9.07
2023-03-17T19:50:02.281Z,8.99
2023-03-17T19:55:03.423Z,8.85
2023-03-17T20:00:02.319Z,8.82
2023-03-17T20:05:03.108Z,8.72
2023-03-17T20:10:03.323Z,8.69
2023-03-17T20:15:03.084Z,8.55
2023-03-17T20:20:02.895Z,8.42
2023-03-17T20:25:02.975Z,8.28
2023-03-17T20:30:02.862Z,7.97
2023-03-17T20:35:02.593Z,7.98
2023-03-17T20:40:02.734Z,7.91
2023-03-17T20:45:02.783Z,8.04
2023-03-17T20:50:02.535Z,7.93
2023-03-17T20:55:03.833Z,7.74
2023-03-17T21:00:02.918Z,7.57
2023-03-17T21:05:02.575Z,7.34
2023-03-17T21:10:02.287Z,7.21
2023-03-17T21:15:02.289Z,7.07
2023-03-17T21:20:03.331Z,6.95
2023-03-17T21:25:03.241Z,7.07
2023-03-17T21:30:03.071Z,7.25
2023-03-17T21:35:02.761Z,7.45
2023-03-17T21:40:02.443Z,7.61
2023-03-17T21:45:03.204Z,7.69
2023-03-17T21:50:07.961Z,7.69
2023-03-17T21:55:03.141Z,7.77
2023-03-17T22:00:02.657Z,7.69
2023-03-17T22:05:02.381Z,7.6
2023-03-17T22:10:03.115Z,7.62
2023-03-17T22:15:02.923Z,7.66
2023-03-17T22:20:02.835Z,7.7
2023-03-17T22:25:02.838Z,7.85
2023-03-17T22:30:02.628Z,7.85
2023-03-17T22:35:02.276Z,7.88
2023-03-17T22:40:03.042Z,7.89
2023-03-17T22:45:02.785Z,7.83
2023-03-17T22:50:02.467Z,7.82
2023-03-17T22:55:03.927Z,7.73
2023-03-17T23:00:03.077Z,7.66
2023-03-17T23:05:02.965Z,7.46
2023-03-17T23:10:02.689Z,7.34
2023-03-17T23:15:02.930Z,7.23
2023-03-17T23:20:02.630Z,7.16
2023-03-17T23:25:02.342Z,7.09
2023-03-17T23:30:03.137Z,7.04
2023-03-17T23:35:02.909Z,6.99
2023-03-17T23:40:02.765Z,6.85
2023-03-17T23:45:02.935Z,6.6
2023-03-17T23:50:02.824Z,6.46
2023-03-17T23:55:03.514Z,6.43
